<?xml version="1.0" encoding="UTF-8" standalone="no" ?>
<gpx xmlns="http://www.topografix.com/GPX/1/1" xmlns:xsi="http://www.w3.org/2001/XMLSchema-instance" xsi:schemaLocation="http://www.topografix.com/GPX/1/1 http://www.topografix.com/GPX/1/1/gpx.xsd" version="1.1" creator="VisuGPX - https://www.visugpx.com">
  <metadata>
    <name>bignan 14</name>
    <desc><![CDATA[circuit des landes 14 km]]></desc>
  </metadata>
  <trk>
    <name><![CDATA[Bignan Les Landes]]></name>
    <trkseg>
      <trkpt lat="47.8781" lon="-2.7743">
        <ele>122.6</ele>
        <time>2010-10-01T09:44:55Z</time>
      </trkpt>
      <trkpt lat="47.87857" lon="-2.7747">
        <ele>124.5</ele>
        <time>2010-10-01T09:45:09Z</time>
      </trkpt>
      <trkpt lat="47.87793" lon="-2.77468">
        <ele>125.8</ele>
        <time>2010-10-01T09:45:16Z</time>
      </trkpt>
      <trkpt lat="47.87767" lon="-2.77507">
        <ele>125.3</ele>
        <time>2010-10-01T09:45:20Z</time>
      </trkpt>
      <trkpt lat="47.87703" lon="-2.77546">
        <ele>134.9</ele>
        <time>2010-10-01T09:45:28Z</time>
      </trkpt>
      <trkpt lat="47.87614" lon="-2.77588">
        <ele>140.5</ele>
        <time>2010-10-01T09:45:38Z</time>
      </trkpt>
      <trkpt lat="47.87547" lon="-2.7764">
        <ele>142.9</ele>
        <time>2010-10-01T09:45:46Z</time>
      </trkpt>
      <trkpt lat="47.87495" lon="-2.77668">
        <ele>145</ele>
        <time>2010-10-01T09:45:53Z</time>
      </trkpt>
      <trkpt lat="47.87434" lon="-2.77674">
        <ele>142.5</ele>
        <time>2010-10-01T09:46:00Z</time>
      </trkpt>
      <trkpt lat="47.87381" lon="-2.77669">
        <ele>138.4</ele>
        <time>2010-10-01T09:46:05Z</time>
      </trkpt>
      <trkpt lat="47.87328" lon="-2.77719">
        <ele>135</ele>
        <time>2010-10-01T09:46:12Z</time>
      </trkpt>
      <trkpt lat="47.87281" lon="-2.77793">
        <ele>127.4</ele>
        <time>2010-10-01T09:46:20Z</time>
      </trkpt>
      <trkpt lat="47.8726" lon="-2.77878">
        <ele>125.9</ele>
        <time>2010-10-01T09:46:27Z</time>
      </trkpt>
      <trkpt lat="47.87232" lon="-2.77967">
        <ele>130.2</ele>
        <time>2010-10-01T09:46:34Z</time>
      </trkpt>
      <trkpt lat="47.87201" lon="-2.77993">
        <ele>132.4</ele>
        <time>2010-10-01T09:46:38Z</time>
      </trkpt>
      <trkpt lat="47.87128" lon="-2.78014">
        <ele>134.3</ele>
        <time>2010-10-01T09:46:46Z</time>
      </trkpt>
      <trkpt lat="47.87128" lon="-2.78065">
        <ele>140</ele>
        <time>2010-10-01T09:46:50Z</time>
      </trkpt>
      <trkpt lat="47.87236" lon="-2.78179">
        <ele>151.1</ele>
        <time>2010-10-01T09:47:05Z</time>
      </trkpt>
      <trkpt lat="47.87249" lon="-2.78364">
        <ele>159.6</ele>
        <time>2010-10-01T09:47:19Z</time>
      </trkpt>
      <trkpt lat="47.8729" lon="-2.78509">
        <ele>155.1</ele>
        <time>2010-10-01T09:47:31Z</time>
      </trkpt>
      <trkpt lat="47.87277" lon="-2.78765">
        <ele>140.1</ele>
        <time>2010-10-01T09:47:49Z</time>
      </trkpt>
      <trkpt lat="47.8728" lon="-2.78906">
        <ele>131</ele>
        <time>2010-10-01T09:47:59Z</time>
      </trkpt>
      <trkpt lat="47.87257" lon="-2.7891">
        <ele>130.7</ele>
        <time>2010-10-01T09:48:00Z</time>
      </trkpt>
      <trkpt lat="47.8721" lon="-2.78973">
        <ele>129.2</ele>
        <time>2010-10-01T09:48:07Z</time>
      </trkpt>
      <trkpt lat="47.87134" lon="-2.79042">
        <ele>131.4</ele>
        <time>2010-10-01T09:48:18Z</time>
      </trkpt>
      <trkpt lat="47.87025" lon="-2.79112">
        <ele>136.3</ele>
        <time>2010-10-01T09:48:34Z</time>
      </trkpt>
      <trkpt lat="47.86966" lon="-2.79162">
        <ele>150.4</ele>
        <time>2010-10-01T09:48:54Z</time>
      </trkpt>
      <trkpt lat="47.86945" lon="-2.79268">
        <ele>149.9</ele>
        <time>2010-10-01T09:49:01Z</time>
      </trkpt>
      <trkpt lat="47.86961" lon="-2.79402">
        <ele>149.9</ele>
        <time>2010-10-01T09:49:10Z</time>
      </trkpt>
      <trkpt lat="47.86988" lon="-2.79505">
        <ele>143.8</ele>
        <time>2010-10-01T09:49:18Z</time>
      </trkpt>
      <trkpt lat="47.86991" lon="-2.79584">
        <ele>140.8</ele>
        <time>2010-10-01T09:49:21Z</time>
      </trkpt>
      <trkpt lat="47.86942" lon="-2.79586">
        <ele>151.4</ele>
        <time>2010-10-01T09:49:24Z</time>
      </trkpt>
      <trkpt lat="47.86924" lon="-2.79622">
        <ele>152.2</ele>
        <time>2010-10-01T09:49:27Z</time>
      </trkpt>
      <trkpt lat="47.86921" lon="-2.79667">
        <ele>151.1</ele>
        <time>2010-10-01T09:49:31Z</time>
      </trkpt>
      <trkpt lat="47.86896" lon="-2.79728">
        <ele>152.9</ele>
        <time>2010-10-01T09:49:36Z</time>
      </trkpt>
      <trkpt lat="47.86903" lon="-2.79758">
        <ele>151.4</ele>
        <time>2010-10-01T09:49:38Z</time>
      </trkpt>
      <trkpt lat="47.86878" lon="-2.79812">
        <ele>156</ele>
        <time>2010-10-01T09:49:43Z</time>
      </trkpt>
      <trkpt lat="47.86843" lon="-2.79895">
        <ele>159.2</ele>
        <time>2010-10-01T09:49:51Z</time>
      </trkpt>
      <trkpt lat="47.86824" lon="-2.79941">
        <ele>156.2</ele>
        <time>2010-10-01T09:49:56Z</time>
      </trkpt>
      <trkpt lat="47.86773" lon="-2.79892">
        <ele>159.5</ele>
        <time>2010-10-01T09:50:03Z</time>
      </trkpt>
      <trkpt lat="47.86706" lon="-2.79835">
        <ele>168.1</ele>
        <time>2010-10-01T09:50:11Z</time>
      </trkpt>
      <trkpt lat="47.86642" lon="-2.7977">
        <ele>172.6</ele>
        <time>2010-10-01T09:50:20Z</time>
      </trkpt>
      <trkpt lat="47.86414" lon="-2.79562">
        <ele>177.5</ele>
        <time>2010-10-01T09:50:49Z</time>
      </trkpt>
      <trkpt lat="47.86391" lon="-2.7965">
        <ele>177.5</ele>
        <time>2010-10-01T09:50:56Z</time>
      </trkpt>
      <trkpt lat="47.86324" lon="-2.79739">
        <ele>174.9</ele>
        <time>2010-10-01T09:51:05Z</time>
      </trkpt>
      <trkpt lat="47.86204" lon="-2.79851">
        <ele>171.3</ele>
        <time>2010-10-01T09:51:20Z</time>
      </trkpt>
      <trkpt lat="47.86099" lon="-2.7996">
        <ele>161</ele>
        <time>2010-10-01T09:51:38Z</time>
      </trkpt>
      <trkpt lat="47.86086" lon="-2.79981">
        <ele>166</ele>
        <time>2010-10-01T09:51:39Z</time>
      </trkpt>
      <trkpt lat="47.86096" lon="-2.80012">
        <ele>167.9</ele>
        <time>2010-10-01T09:51:41Z</time>
      </trkpt>
      <trkpt lat="47.86108" lon="-2.80094">
        <ele>172.4</ele>
        <time>2010-10-01T09:51:46Z</time>
      </trkpt>
      <trkpt lat="47.86124" lon="-2.80173">
        <ele>176.3</ele>
        <time>2010-10-01T09:51:51Z</time>
      </trkpt>
      <trkpt lat="47.85998" lon="-2.80221">
        <ele>164.8</ele>
        <time>2010-10-01T09:52:02Z</time>
      </trkpt>
      <trkpt lat="47.86003" lon="-2.80288">
        <ele>147.7</ele>
        <time>2010-10-01T09:52:10Z</time>
      </trkpt>
      <trkpt lat="47.85946" lon="-2.80276">
        <ele>158.9</ele>
        <time>2010-10-01T09:52:15Z</time>
      </trkpt>
      <trkpt lat="47.85952" lon="-2.80338">
        <ele>155.5</ele>
        <time>2010-10-01T09:52:20Z</time>
      </trkpt>
      <trkpt lat="47.85892" lon="-2.80351">
        <ele>124.2</ele>
        <time>2010-10-01T09:52:32Z</time>
      </trkpt>
      <trkpt lat="47.85892" lon="-2.80415">
        <ele>141.3</ele>
        <time>2010-10-01T09:52:40Z</time>
      </trkpt>
      <trkpt lat="47.85826" lon="-2.80388">
        <ele>133.9</ele>
        <time>2010-10-01T09:52:45Z</time>
      </trkpt>
      <trkpt lat="47.8585" lon="-2.80479">
        <ele>128.8</ele>
        <time>2010-10-01T09:52:48Z</time>
      </trkpt>
      <trkpt lat="47.85846" lon="-2.80525">
        <ele>123.7</ele>
        <time>2010-10-01T09:52:50Z</time>
      </trkpt>
      <trkpt lat="47.85832" lon="-2.80565">
        <ele>118.6</ele>
        <time>2010-10-01T09:52:52Z</time>
      </trkpt>
      <trkpt lat="47.85873" lon="-2.80596">
        <ele>112</ele>
        <time>2010-10-01T09:52:55Z</time>
      </trkpt>
      <trkpt lat="47.85865" lon="-2.80679">
        <ele>96.7</ele>
        <time>2010-10-01T09:53:06Z</time>
      </trkpt>
      <trkpt lat="47.85758" lon="-2.80633">
        <ele>96.7</ele>
        <time>2010-10-01T09:53:13Z</time>
      </trkpt>
      <trkpt lat="47.8568" lon="-2.80638">
        <ele>99</ele>
        <time>2010-10-01T09:53:22Z</time>
      </trkpt>
      <trkpt lat="47.8558" lon="-2.8057">
        <ele>102.7</ele>
        <time>2010-10-01T09:53:34Z</time>
      </trkpt>
      <trkpt lat="47.85476" lon="-2.80509">
        <ele>97.5</ele>
        <time>2010-10-01T09:53:46Z</time>
      </trkpt>
      <trkpt lat="47.85452" lon="-2.80483">
        <ele>100.4</ele>
        <time>2010-10-01T09:53:49Z</time>
      </trkpt>
      <trkpt lat="47.85421" lon="-2.80477">
        <ele>111.3</ele>
        <time>2010-10-01T09:53:51Z</time>
      </trkpt>
      <trkpt lat="47.85401" lon="-2.80461">
        <ele>111.5</ele>
        <time>2010-10-01T09:53:54Z</time>
      </trkpt>
      <trkpt lat="47.85398" lon="-2.8029">
        <ele>117.3</ele>
        <time>2010-10-01T09:54:08Z</time>
      </trkpt>
      <trkpt lat="47.85353" lon="-2.80272">
        <ele>122.6</ele>
        <time>2010-10-01T09:54:08Z</time>
      </trkpt>
      <trkpt lat="47.85282" lon="-2.80165">
        <ele>121.3</ele>
        <time>2010-10-01T09:54:10Z</time>
      </trkpt>
      <trkpt lat="47.85259" lon="-2.80025">
        <ele>120.8</ele>
        <time>2010-10-01T09:54:11Z</time>
      </trkpt>
      <trkpt lat="47.85275" lon="-2.79798">
        <ele>127.8</ele>
        <time>2010-10-01T09:54:14Z</time>
      </trkpt>
      <trkpt lat="47.85269" lon="-2.79578">
        <ele>129.7</ele>
        <time>2010-10-01T09:54:16Z</time>
      </trkpt>
      <trkpt lat="47.85247" lon="-2.79474">
        <ele>128.4</ele>
        <time>2010-10-01T09:54:18Z</time>
      </trkpt>
      <trkpt lat="47.85282" lon="-2.79525">
        <ele>133</ele>
        <time>2010-10-01T09:54:19Z</time>
      </trkpt>
      <trkpt lat="47.85311" lon="-2.79538">
        <ele>138</ele>
        <time>2010-10-01T09:54:19Z</time>
      </trkpt>
      <trkpt lat="47.85316" lon="-2.79499">
        <ele>139.1</ele>
        <time>2010-10-01T09:54:20Z</time>
      </trkpt>
      <trkpt lat="47.85309" lon="-2.79434">
        <ele>105.7</ele>
        <time>2010-10-01T09:54:30Z</time>
      </trkpt>
      <trkpt lat="47.85329" lon="-2.79351">
        <ele>105.9</ele>
        <time>2010-10-01T09:54:46Z</time>
      </trkpt>
      <trkpt lat="47.85315" lon="-2.79241">
        <ele>113.2</ele>
        <time>2010-10-01T09:55:05Z</time>
      </trkpt>
      <trkpt lat="47.85342" lon="-2.79157">
        <ele>146.8</ele>
        <time>2010-10-01T09:55:10Z</time>
      </trkpt>
      <trkpt lat="47.85372" lon="-2.79099">
        <ele>149</ele>
        <time>2010-10-01T09:55:15Z</time>
      </trkpt>
      <trkpt lat="47.85418" lon="-2.79066">
        <ele>154</ele>
        <time>2010-10-01T09:55:21Z</time>
      </trkpt>
      <trkpt lat="47.85439" lon="-2.79052">
        <ele>156.1</ele>
        <time>2010-10-01T09:55:23Z</time>
      </trkpt>
      <trkpt lat="47.85442" lon="-2.79032">
        <ele>157.2</ele>
        <time>2010-10-01T09:55:26Z</time>
      </trkpt>
      <trkpt lat="47.8543" lon="-2.79019">
        <ele>156.1</ele>
        <time>2010-10-01T09:55:27Z</time>
      </trkpt>
      <trkpt lat="47.85419" lon="-2.79012">
        <ele>155.1</ele>
        <time>2010-10-01T09:55:28Z</time>
      </trkpt>
      <trkpt lat="47.85334" lon="-2.78967">
        <ele>142.6</ele>
        <time>2010-10-01T09:55:40Z</time>
      </trkpt>
      <trkpt lat="47.85345" lon="-2.78936">
        <ele>135</ele>
        <time>2010-10-01T09:55:57Z</time>
      </trkpt>
      <trkpt lat="47.85323" lon="-2.78826">
        <ele>150.3</ele>
        <time>2010-10-01T09:56:12Z</time>
      </trkpt>
      <trkpt lat="47.85353" lon="-2.7879">
        <ele>129.8</ele>
        <time>2010-10-01T09:56:27Z</time>
      </trkpt>
      <trkpt lat="47.85443" lon="-2.78735">
        <ele>146.9</ele>
        <time>2010-10-01T09:56:47Z</time>
      </trkpt>
      <trkpt lat="47.8543" lon="-2.78661">
        <ele>126.6</ele>
        <time>2010-10-01T09:56:56Z</time>
      </trkpt>
      <trkpt lat="47.85447" lon="-2.78589">
        <ele>131</ele>
        <time>2010-10-01T09:57:02Z</time>
      </trkpt>
      <trkpt lat="47.85465" lon="-2.7847">
        <ele>132</ele>
        <time>2010-10-01T09:57:11Z</time>
      </trkpt>
      <trkpt lat="47.85502" lon="-2.78335">
        <ele>130.7</ele>
        <time>2010-10-01T09:57:22Z</time>
      </trkpt>
      <trkpt lat="47.85547" lon="-2.78187">
        <ele>153.8</ele>
        <time>2010-10-01T09:57:34Z</time>
      </trkpt>
      <trkpt lat="47.85535" lon="-2.7811">
        <ele>144.8</ele>
        <time>2010-10-01T09:57:39Z</time>
      </trkpt>
      <trkpt lat="47.8554" lon="-2.78056">
        <ele>126.2</ele>
        <time>2010-10-01T09:57:43Z</time>
      </trkpt>
      <trkpt lat="47.85544" lon="-2.78017">
        <ele>136.6</ele>
        <time>2010-10-01T09:57:45Z</time>
      </trkpt>
      <trkpt lat="47.85568" lon="-2.77956">
        <ele>131.4</ele>
        <time>2010-10-01T09:57:51Z</time>
      </trkpt>
      <trkpt lat="47.85612" lon="-2.7791">
        <ele>121.4</ele>
        <time>2010-10-01T09:57:58Z</time>
      </trkpt>
      <trkpt lat="47.85695" lon="-2.77844">
        <ele>117.6</ele>
        <time>2010-10-01T09:58:07Z</time>
      </trkpt>
      <trkpt lat="47.85764" lon="-2.77857">
        <ele>108.6</ele>
        <time>2010-10-01T09:58:20Z</time>
      </trkpt>
      <trkpt lat="47.85817" lon="-2.77844">
        <ele>125.4</ele>
        <time>2010-10-01T09:58:24Z</time>
      </trkpt>
      <trkpt lat="47.85737" lon="-2.77762">
        <ele>107.6</ele>
        <time>2010-10-01T09:58:24Z</time>
      </trkpt>
      <trkpt lat="47.85633" lon="-2.77719">
        <ele>105.1</ele>
        <time>2010-10-01T09:58:24Z</time>
      </trkpt>
      <trkpt lat="47.85545" lon="-2.77731">
        <ele>98.8</ele>
        <time>2010-10-01T09:58:24Z</time>
      </trkpt>
      <trkpt lat="47.85568" lon="-2.77577">
        <ele>94</ele>
        <time>2010-10-01T09:58:25Z</time>
      </trkpt>
      <trkpt lat="47.85598" lon="-2.7749">
        <ele>87.8</ele>
        <time>2010-10-01T09:58:25Z</time>
      </trkpt>
      <trkpt lat="47.8566" lon="-2.7736">
        <ele>84.7</ele>
        <time>2010-10-01T09:58:25Z</time>
      </trkpt>
      <trkpt lat="47.85715" lon="-2.77367">
        <ele>85.4</ele>
        <time>2010-10-01T09:58:25Z</time>
      </trkpt>
      <trkpt lat="47.85758" lon="-2.77328">
        <ele>106.5</ele>
        <time>2010-10-01T09:58:26Z</time>
      </trkpt>
      <trkpt lat="47.85764" lon="-2.77252">
        <ele>98.9</ele>
        <time>2010-10-01T09:58:52Z</time>
      </trkpt>
      <trkpt lat="47.85835" lon="-2.77237">
        <ele>114.4</ele>
        <time>2010-10-01T09:59:01Z</time>
      </trkpt>
      <trkpt lat="47.85859" lon="-2.77114">
        <ele>128</ele>
        <time>2010-10-01T09:59:04Z</time>
      </trkpt>
      <trkpt lat="47.85892" lon="-2.76984">
        <ele>130.9</ele>
        <time>2010-10-01T09:59:07Z</time>
      </trkpt>
      <trkpt lat="47.85901" lon="-2.77062">
        <ele>133.6</ele>
        <time>2010-10-01T09:59:08Z</time>
      </trkpt>
      <trkpt lat="47.85924" lon="-2.7713">
        <ele>136.5</ele>
        <time>2010-10-01T09:59:10Z</time>
      </trkpt>
      <trkpt lat="47.85962" lon="-2.77118">
        <ele>141.6</ele>
        <time>2010-10-01T09:59:11Z</time>
      </trkpt>
      <trkpt lat="47.85982" lon="-2.77209">
        <ele>99.7</ele>
        <time>2010-10-01T09:59:14Z</time>
      </trkpt>
      <trkpt lat="47.86052" lon="-2.77339">
        <ele>98.2</ele>
        <time>2010-10-01T09:59:22Z</time>
      </trkpt>
      <trkpt lat="47.86177" lon="-2.77328">
        <ele>94</ele>
        <time>2010-10-01T09:59:31Z</time>
      </trkpt>
      <trkpt lat="47.86221" lon="-2.77328">
        <ele>88.4</ele>
        <time>2010-10-01T09:59:40Z</time>
      </trkpt>
      <trkpt lat="47.86262" lon="-2.77225">
        <ele>85</ele>
        <time>2010-10-01T09:59:44Z</time>
      </trkpt>
      <trkpt lat="47.86229" lon="-2.77205">
        <ele>82.1</ele>
        <time>2010-10-01T09:59:48Z</time>
      </trkpt>
      <trkpt lat="47.8618" lon="-2.77169">
        <ele>79.9</ele>
        <time>2010-10-01T09:59:52Z</time>
      </trkpt>
      <trkpt lat="47.86144" lon="-2.77152">
        <ele>141.8</ele>
        <time>2010-10-01T09:59:53Z</time>
      </trkpt>
      <trkpt lat="47.86093" lon="-2.77059">
        <ele>80.2</ele>
        <time>2010-10-01T09:59:56Z</time>
      </trkpt>
      <trkpt lat="47.86017" lon="-2.77003">
        <ele>83.7</ele>
        <time>2010-10-01T10:00:01Z</time>
      </trkpt>
      <trkpt lat="47.86031" lon="-2.76952">
        <ele>87.7</ele>
        <time>2010-10-01T10:00:06Z</time>
      </trkpt>
      <trkpt lat="47.86021" lon="-2.76907">
        <ele>143.7</ele>
        <time>2010-10-01T10:00:27Z</time>
      </trkpt>
      <trkpt lat="47.86094" lon="-2.76863">
        <ele>143.4</ele>
        <time>2010-10-01T10:00:44Z</time>
      </trkpt>
      <trkpt lat="47.86153" lon="-2.7681">
        <ele>124.8</ele>
        <time>2010-10-01T10:01:00Z</time>
      </trkpt>
      <trkpt lat="47.86186" lon="-2.76802">
        <ele>146.2</ele>
        <time>2010-10-01T10:01:16Z</time>
      </trkpt>
      <trkpt lat="47.86235" lon="-2.76794">
        <ele>139.6</ele>
        <time>2010-10-01T10:01:27Z</time>
      </trkpt>
      <trkpt lat="47.86281" lon="-2.76768">
        <ele>142.6</ele>
        <time>2010-10-01T10:01:56Z</time>
      </trkpt>
      <trkpt lat="47.86286" lon="-2.76652">
        <ele>131.9</ele>
        <time>2010-10-01T10:02:02Z</time>
      </trkpt>
      <trkpt lat="47.863" lon="-2.76612">
        <ele>136.3</ele>
        <time>2010-10-01T10:02:18Z</time>
      </trkpt>
      <trkpt lat="47.86392" lon="-2.76584">
        <ele>135.4</ele>
        <time>2010-10-01T10:02:33Z</time>
      </trkpt>
      <trkpt lat="47.86406" lon="-2.76648">
        <ele>135.5</ele>
        <time>2010-10-01T10:02:44Z</time>
      </trkpt>
      <trkpt lat="47.86518" lon="-2.7667">
        <ele>128.3</ele>
        <time>2010-10-01T10:02:56Z</time>
      </trkpt>
      <trkpt lat="47.86534" lon="-2.76577">
        <ele>131.8</ele>
        <time>2010-10-01T10:03:07Z</time>
      </trkpt>
      <trkpt lat="47.86572" lon="-2.76596">
        <ele>124.1</ele>
        <time>2010-10-01T10:03:13Z</time>
      </trkpt>
      <trkpt lat="47.86599" lon="-2.76675">
        <ele>118.4</ele>
        <time>2010-10-01T10:03:15Z</time>
      </trkpt>
      <trkpt lat="47.86629" lon="-2.76806">
        <ele>115.6</ele>
        <time>2010-10-01T10:03:22Z</time>
      </trkpt>
      <trkpt lat="47.86659" lon="-2.76735">
        <ele>125.8</ele>
        <time>2010-10-01T10:03:29Z</time>
      </trkpt>
      <trkpt lat="47.86705" lon="-2.76703">
        <ele>131</ele>
        <time>2010-10-01T10:03:35Z</time>
      </trkpt>
      <trkpt lat="47.86746" lon="-2.76707">
        <ele>131.4</ele>
        <time>2010-10-01T10:03:40Z</time>
      </trkpt>
      <trkpt lat="47.868" lon="-2.76727">
        <ele>129.2</ele>
        <time>2010-10-01T10:03:48Z</time>
      </trkpt>
      <trkpt lat="47.86893" lon="-2.7675">
        <ele>125.5</ele>
        <time>2010-10-01T10:03:55Z</time>
      </trkpt>
      <trkpt lat="47.86904" lon="-2.76695">
        <ele>117.6</ele>
        <time>2010-10-01T10:04:02Z</time>
      </trkpt>
      <trkpt lat="47.8695" lon="-2.76573">
        <ele>117.9</ele>
        <time>2010-10-01T10:04:12Z</time>
      </trkpt>
      <trkpt lat="47.86999" lon="-2.76541">
        <ele>121</ele>
        <time>2010-10-01T10:04:17Z</time>
      </trkpt>
      <trkpt lat="47.87045" lon="-2.76594">
        <ele>122.4</ele>
        <time>2010-10-01T10:04:22Z</time>
      </trkpt>
      <trkpt lat="47.87135" lon="-2.76699">
        <ele>115.5</ele>
        <time>2010-10-01T10:04:25Z</time>
      </trkpt>
      <trkpt lat="47.87222" lon="-2.76857">
        <ele>115.4</ele>
        <time>2010-10-01T10:04:29Z</time>
      </trkpt>
      <trkpt lat="47.87277" lon="-2.76936">
        <ele>116.6</ele>
        <time>2010-10-01T10:04:31Z</time>
      </trkpt>
      <trkpt lat="47.87329" lon="-2.76982">
        <ele>119</ele>
        <time>2010-10-01T10:04:33Z</time>
      </trkpt>
      <trkpt lat="47.87418" lon="-2.77019">
        <ele>116</ele>
        <time>2010-10-01T10:04:58Z</time>
      </trkpt>
      <trkpt lat="47.87522" lon="-2.76912">
        <ele>118.6</ele>
        <time>2010-10-01T10:05:09Z</time>
      </trkpt>
      <trkpt lat="47.8757" lon="-2.76984">
        <ele>118.8</ele>
        <time>2010-10-01T10:05:16Z</time>
      </trkpt>
      <trkpt lat="47.87607" lon="-2.77009">
        <ele>113.5</ele>
        <time>2010-10-01T10:05:23Z</time>
      </trkpt>
      <trkpt lat="47.87647" lon="-2.77011">
        <ele>115</ele>
        <time>2010-10-01T10:05:30Z</time>
      </trkpt>
      <trkpt lat="47.87701" lon="-2.77051">
        <ele>112.3</ele>
        <time>2010-10-01T10:05:40Z</time>
      </trkpt>
      <trkpt lat="47.87766" lon="-2.77154">
        <ele>110.8</ele>
        <time>2010-10-01T10:05:47Z</time>
      </trkpt>
      <trkpt lat="47.87671" lon="-2.773">
        <ele>109.4</ele>
        <time>2010-10-01T10:05:55Z</time>
      </trkpt>
      <trkpt lat="47.8772" lon="-2.77343">
        <ele>115.3</ele>
        <time>2010-10-01T10:06:02Z</time>
      </trkpt>
      <trkpt lat="47.87785" lon="-2.77383">
        <ele>117.4</ele>
        <time>2010-10-01T10:06:11Z</time>
      </trkpt>
      <trkpt lat="47.87815" lon="-2.7743">
        <ele>121.8</ele>
        <time>2010-10-01T10:06:23Z</time>
      </trkpt>
      <trkpt lat="47.87856" lon="-2.77478">
        <ele>122.9</ele>
        <time>2010-10-01T10:06:28Z</time>
      </trkpt>
    </trkseg>
  </trk>
</gpx>